sensor_id;sensor_type;location;lat;lon;timestamp;pressure;altitude;pressure_sealevel;temperature;humidity
59650;BME280;46162;57.568;25.814;2022-09-24T00:02:24;101021.94;;;1.32;100.00
59650;BME280;46162;57.568;25.814;2022-09-24T00:04:53;101033.09;;;1.38;100.00
59650;BME280;46162;57.568;25.814;2022-09-24T00:07:21;101028.03;;;1.49;100.00
59650;BME280;46162;57.568;25.814;2022-09-24T00:09:50;101032.66;;;1.30;100.00
59650;BME280;46162;57.568;25.814;2022-09-24T00:12:20;101025.69;;;1.12;100.00
59650;BME280;46162;57.568;25.814;2022-09-24T00:14:49;101040.19;;;0.89;100.00
59650;BME280;46162;57.568;25.814;2022-09-24T00:17:17;101045.25;;;0.42;100.00
59650;BME280;46162;57.568;25.814;2022-09-24T00:19:46;101043.75;;;0.19;100.00
59650;BME280;46162;57.568;25.814;2022-09-24T00:22:15;101049.69;;;0.25;100.00
59650;BME280;46162;57.568;25.814;2022-09-24T00:24:43;101047.34;;;0.18;100.00
59650;BME280;46162;57.568;25.814;2022-09-24T00:27:31;101028.53;;;0.40;100.00
59650;BME280;46162;57.568;25.814;2022-09-24T00:29:59;101033.63;;;0.45;100.00
59650;BME280;46162;57.568;25.814;2022-09-24T00:32:28;101027.44;;;0.62;100.00
59650;BME280;46162;57.568;25.814;2022-09-24T00:34:56;101032.59;;;0.65;100.00
59650;BME280;46162;57.568;25.814;2022-09-24T00:37:25;101025.84;;;0.75;100.00
59650;BME280;46162;57.568;25.814;2022-09-24T00:39:55;101014.22;;;0.94;100.00
59650;BME280;46162;57.568;25.814;2022-09-24T00:42:23;101012.47;;;1.10;100.00
59650;BME280;46162;57.568;25.814;2022-09-24T00:44:54;101030.34;;;1.24;100.00
59650;BME280;46162;57.568;25.814;2022-09-24T00:47:28;101024.06;;;1.09;100.00
59650;BME280;46162;57.568;25.814;2022-09-24T00:50:05;101026.22;;;0.85;100.00
59650;BME280;46162;57.568;25.814;2022-09-24T00:52:38;101019.94;;;0.53;100.00
59650;BME280;46162;57.568;25.814;2022-09-24T00:55:08;101030.47;;;0.37;100.00
59650;BME280;46162;57.568;25.814;2022-09-24T00:57:39;101026.72;;;0.24;100.00
59650;BME280;46162;57.568;25.814;2022-09-24T01:00:12;101036.38;;;-0.10;100.00
59650;BME280;46162;57.568;25.814;2022-09-24T01:02:43;101031.72;;;0.12;100.00
59650;BME280;46162;57.568;25.814;2022-09-24T01:05:13;101025.88;;;0.40;100.00
59650;BME280;46162;57.568;25.814;2022-09-24T01:07:42;101023.13;;;0.42;100.00
59650;BME280;46162;57.568;25.814;2022-09-24T01:10:11;101021.19;;;0.46;100.00
59650;BME280;46162;57.568;25.814;2022-09-24T01:13:08;101020.16;;;0.66;100.00
59650;BME280;46162;57.568;25.814;2022-09-24T01:15:45;101018.91;;;0.73;100.00
59650;BME280;46162;57.568;25.814;2022-09-24T01:18:24;101010.13;;;0.71;100.00
59650;BME280;46162;57.568;25.814;2022-09-24T01:21:12;101010.50;;;0.80;100.00
59650;BME280;46162;57.568;25.814;2022-09-24T01:26:57;101010.06;;;1.05;100.00
59650;BME280;46162;57.568;25.814;2022-09-24T01:29:36;101014.34;;;1.08;100.00
59650;BME280;46162;57.568;25.814;2022-09-24T01:32:12;101013.25;;;1.28;100.00
59650;BME280;46162;57.568;25.814;2022-09-24T01:34:48;101013.78;;;1.19;100.00
59650;BME280;46162;57.568;25.814;2022-09-24T01:37:21;101010.72;;;0.93;100.00
59650;BME280;46162;57.568;25.814;2022-09-24T01:39:53;101010.66;;;1.11;100.00
59650;BME280;46162;57.568;25.814;2022-09-24T01:42:26;101016.09;;;1.25;100.00
59650;BME280;46162;57.568;25.814;2022-09-24T01:45:00;101012.03;;;1.18;100.00
59650;BME280;46162;57.568;25.814;2022-09-24T01:47:31;101014.03;;;1.30;100.00
59650;BME280;46162;57.568;25.814;2022-09-24T01:50:08;101008.28;;;1.38;100.00
59650;BME280;46162;57.568;25.814;2022-09-24T01:52:39;101007.06;;;1.43;100.00
59650;BME280;46162;57.568;25.814;2022-09-24T01:55:13;101003.91;;;1.53;100.00
59650;BME280;46162;57.568;25.814;2022-09-24T01:57:46;101006.25;;;1.59;100.00
59650;BME280;46162;57.568;25.814;2022-09-24T02:00:19;101010.28;;;1.66;100.00
59650;BME280;46162;57.568;25.814;2022-09-24T02:02:52;101011.72;;;1.71;100.00
59650;BME280;46162;57.568;25.814;2022-09-24T02:05:30;101001.69;;;1.61;100.00
59650;BME280;46162;57.568;25.814;2022-09-24T02:08:04;101002.09;;;1.53;100.00
59650;BME280;46162;57.568;25.814;2022-09-24T02:10:41;101005.41;;;0.93;100.00
59650;BME280;46162;57.568;25.814;2022-09-24T02:13:14;101004.81;;;0.71;100.00
59650;BME280;46162;57.568;25.814;2022-09-24T02:15:49;101000.50;;;0.52;100.00
59650;BME280;46162;57.568;25.814;2022-09-24T02:18:24;101003.03;;;0.54;100.00
59650;BME280;46162;57.568;25.814;2022-09-24T02:20:57;101006.00;;;0.65;100.00
59650;BME280;46162;57.568;25.814;2022-09-24T02:23:28;101007.25;;;0.75;100.00
59650;BME280;46162;57.568;25.814;2022-09-24T02:25:59;101000.44;;;0.87;100.00
59650;BME280;46162;57.568;25.814;2022-09-24T02:28:29;101005.13;;;0.82;100.00
59650;BME280;46162;57.568;25.814;2022-09-24T02:31:06;101000.69;;;0.98;100.00
59650;BME280;46162;57.568;25.814;2022-09-24T02:33:38;100999.41;;;1.05;100.00
59650;BME280;46162;57.568;25.814;2022-09-24T02:36:28;100999.22;;;0.93;100.00
59650;BME280;46162;57.568;25.814;2022-09-24T02:38:57;101000.38;;;1.04;100.00
59650;BME280;46162;57.568;25.814;2022-09-24T02:41:26;100998.38;;;0.92;100.00
59650;BME280;46162;57.568;25.814;2022-09-24T02:43:57;101003.63;;;0.76;100.00
59650;BME280;46162;57.568;25.814;2022-09-24T02:46:27;100998.59;;;0.37;100.00
59650;BME280;46162;57.568;25.814;2022-09-24T02:48:56;101002.66;;;0.09;100.00
59650;BME280;46162;57.568;25.814;2022-09-24T02:51:25;101006.41;;;-0.12;100.00
59650;BME280;46162;57.568;25.814;2022-09-24T02:53:54;101001.56;;;-0.04;100.00
59650;BME280;46162;57.568;25.814;2022-09-24T02:56:22;101004.84;;;0.01;100.00
59650;BME280;46162;57.568;25.814;2022-09-24T02:58:51;101001.13;;;0.23;100.00
59650;BME280;46162;57.568;25.814;2022-09-24T03:01:19;100990.13;;;0.30;100.00
59650;BME280;46162;57.568;25.814;2022-09-24T03:03:50;100986.03;;;0.40;100.00
59650;BME280;46162;57.568;25.814;2022-09-24T03:06:18;100989.78;;;0.19;100.00
59650;BME280;46162;57.568;25.814;2022-09-24T03:08:47;100997.69;;;0.03;100.00
59650;BME280;46162;57.568;25.814;2022-09-24T03:11:16;100995.25;;;-0.02;100.00
59650;BME280;46162;57.568;25.814;2022-09-24T03:13:45;100989.09;;;0.15;100.00
59650;BME280;46162;57.568;25.814;2022-09-24T03:16:14;100983.56;;;0.20;100.00
59650;BME280;46162;57.568;25.814;2022-09-24T03:18:45;101002.66;;;0.09;100.00
59650;BME280;46162;57.568;25.814;2022-09-24T03:21:17;100995.19;;;0.17;100.00
59650;BME280;46162;57.568;25.814;2022-09-24T03:23:46;100984.72;;;0.14;100.00
59650;BME280;46162;57.568;25.814;2022-09-24T03:26:16;100984.56;;;0.17;100.00
59650;BME280;46162;57.568;25.814;2022-09-24T03:28:45;100986.06;;;0.06;100.00
59650;BME280;46162;57.568;25.814;2022-09-24T03:31:14;100986.34;;;-0.01;100.00
59650;BME280;46162;57.568;25.814;2022-09-24T03:33:43;100983.91;;;-0.05;100.00
59650;BME280;46162;57.568;25.814;2022-09-24T03:36:15;100985.19;;;0.05;100.00
59650;BME280;46162;57.568;25.814;2022-09-24T03:38:47;100981.56;;;-0.11;100.00
59650;BME280;46162;57.568;25.814;2022-09-24T03:41:16;100981.97;;;-0.02;100.00
59650;BME280;46162;57.568;25.814;2022-09-24T03:43:46;100975.59;;;0.20;100.00
59650;BME280;46162;57.568;25.814;2022-09-24T03:46:15;100977.75;;;0.29;100.00
59650;BME280;46162;57.568;25.814;2022-09-24T03:48:45;100974.47;;;0.24;100.00
59650;BME280;46162;57.568;25.814;2022-09-24T03:51:18;100969.88;;;0.28;100.00
59650;BME280;46162;57.568;25.814;2022-09-24T03:53:47;100969.56;;;0.16;100.00
59650;BME280;46162;57.568;25.814;2022-09-24T03:56:16;100968.78;;;0.14;100.00
59650;BME280;46162;57.568;25.814;2022-09-24T03:58:45;100971.91;;;0.23;100.00
59650;BME280;46162;57.568;25.814;2022-09-24T04:01:15;100967.69;;;0.36;100.00
59650;BME280;46162;57.568;25.814;2022-09-24T04:03:48;100968.22;;;0.42;100.00
59650;BME280;46162;57.568;25.814;2022-09-24T04:06:19;100967.91;;;0.49;100.00
59650;BME280;46162;57.568;25.814;2022-09-24T04:08:52;100969.34;;;0.54;100.00
59650;BME280;46162;57.568;25.814;2022-09-24T04:11:20;100971.56;;;0.46;100.00
59650;BME280;46162;57.568;25.814;2022-09-24T04:13:50;100967.50;;;0.39;100.00
59650;BME280;46162;57.568;25.814;2022-09-24T04:16:19;100967.66;;;0.53;100.00
59650;BME280;46162;57.568;25.814;2022-09-24T04:18:48;100964.84;;;0.56;100.00
59650;BME280;46162;57.568;25.814;2022-09-24T04:21:18;100962.03;;;0.42;100.00
59650;BME280;46162;57.568;25.814;2022-09-24T04:23:47;100960.41;;;0.39;100.00
59650;BME280;46162;57.568;25.814;2022-09-24T04:26:16;100961.56;;;0.51;100.00
59650;BME280;46162;57.568;25.814;2022-09-24T04:28:47;100957.66;;;0.58;100.00
59650;BME280;46162;57.568;25.814;2022-09-24T04:31:16;100950.53;;;0.59;100.00
59650;BME280;46162;57.568;25.814;2022-09-24T04:33:46;100965.34;;;0.47;100.00
59650;BME280;46162;57.568;25.814;2022-09-24T04:36:15;100964.84;;;0.56;100.00
59650;BME280;46162;57.568;25.814;2022-09-24T04:38:45;100963.69;;;0.27;100.00
59650;BME280;46162;57.568;25.814;2022-09-24T04:41:14;100960.66;;;0.35;100.00
59650;BME280;46162;57.568;25.814;2022-09-24T04:43:43;100957.75;;;0.39;100.00
59650;BME280;46162;57.568;25.814;2022-09-24T04:46:13;100954.91;;;0.60;100.00
59650;BME280;46162;57.568;25.814;2022-09-24T04:48:42;100962.28;;;0.55;100.00
59650;BME280;46162;57.568;25.814;2022-09-24T04:51:11;100954.50;;;0.68;100.00
59650;BME280;46162;57.568;25.814;2022-09-24T04:53:40;100953.59;;;0.84;100.00
59650;BME280;46162;57.568;25.814;2022-09-24T04:56:10;100949.31;;;0.98;100.00
59650;BME280;46162;57.568;25.814;2022-09-24T04:58:39;100955.06;;;0.90;100.00
59650;BME280;46162;57.568;25.814;2022-09-24T05:01:09;100952.53;;;0.20;100.00
59650;BME280;46162;57.568;25.814;2022-09-24T05:03:39;100954.34;;;0.03;100.00
59650;BME280;46162;57.568;25.814;2022-09-24T05:06:08;100954.72;;;0.12;100.00
59650;BME280;46162;57.568;25.814;2022-09-24T05:08:37;100955.97;;;0.23;100.00
59650;BME280;46162;57.568;25.814;2022-09-24T05:11:06;100963.06;;;0.22;100.00
59650;BME280;46162;57.568;25.814;2022-09-24T05:13:37;100953.84;;;0.29;100.00
59650;BME280;46162;57.568;25.814;2022-09-24T05:16:06;100962.38;;;0.36;100.00
59650;BME280;46162;57.568;25.814;2022-09-24T05:18:34;100961.13;;;0.43;100.00
59650;BME280;46162;57.568;25.814;2022-09-24T05:21:04;100967.72;;;0.52;100.00
59650;BME280;46162;57.568;25.814;2022-09-24T05:23:32;100962.53;;;0.66;100.00
59650;BME280;46162;57.568;25.814;2022-09-24T05:26:01;100962.00;;;0.77;100.00
59650;BME280;46162;57.568;25.814;2022-09-24T05:28:49;100959.06;;;0.81;100.00
59650;BME280;46162;57.568;25.814;2022-09-24T05:31:18;100957.72;;;0.90;100.00
59650;BME280;46162;57.568;25.814;2022-09-24T05:33:47;100956.44;;;0.97;100.00
59650;BME280;46162;57.568;25.814;2022-09-24T05:36:17;100956.69;;;1.08;100.00
59650;BME280;46162;57.568;25.814;2022-09-24T05:38:46;100963.31;;;1.17;100.00
59650;BME280;46162;57.568;25.814;2022-09-24T05:41:15;100960.31;;;1.23;100.00
59650;BME280;46162;57.568;25.814;2022-09-24T05:43:46;100959.38;;;1.40;100.00
59650;BME280;46162;57.568;25.814;2022-09-24T05:46:17;100962.63;;;1.45;100.00
59650;BME280;46162;57.568;25.814;2022-09-24T05:48:46;100957.91;;;1.50;100.00
59650;BME280;46162;57.568;25.814;2022-09-24T05:51:15;100957.47;;;1.58;100.00
59650;BME280;46162;57.568;25.814;2022-09-24T05:53:45;100954.56;;;1.47;100.00
59650;BME280;46162;57.568;25.814;2022-09-24T05:56:13;100958.09;;;1.47;100.00
59650;BME280;46162;57.568;25.814;2022-09-24T05:58:42;100958.50;;;1.56;100.00
59650;BME280;46162;57.568;25.814;2022-09-24T06:01:11;100959.84;;;1.63;100.00
59650;BME280;46162;57.568;25.814;2022-09-24T06:03:41;100962.06;;;1.70;100.00
59650;BME280;46162;57.568;25.814;2022-09-24T06:06:10;100965.03;;;1.66;100.00
59650;BME280;46162;57.568;25.814;2022-09-24T06:08:39;100965.50;;;1.72;100.00
59650;BME280;46162;57.568;25.814;2022-09-24T06:11:08;100966.09;;;1.93;100.00
59650;BME280;46162;57.568;25.814;2022-09-24T06:13:37;100974.34;;;1.89;100.00
59650;BME280;46162;57.568;25.814;2022-09-24T06:16:07;100954.28;;;1.83;100.00
59650;BME280;46162;57.568;25.814;2022-09-24T06:18:38;100968.16;;;1.88;100.00
59650;BME280;46162;57.568;25.814;2022-09-24T06:21:10;100954.28;;;1.83;100.00
59650;BME280;46162;57.568;25.814;2022-09-24T06:23:40;100960.50;;;1.98;100.00
59650;BME280;46162;57.568;25.814;2022-09-24T06:26:12;100947.34;;;1.95;100.00
59650;BME280;46162;57.568;25.814;2022-09-24T06:28:41;100945.56;;;1.96;100.00
59650;BME280;46162;57.568;25.814;2022-09-24T06:31:10;100946.47;;;2.10;100.00
59650;BME280;46162;57.568;25.814;2022-09-24T06:33:39;100955.88;;;2.16;100.00
59650;BME280;46162;57.568;25.814;2022-09-24T06:36:10;100955.31;;;2.11;100.00
59650;BME280;46162;57.568;25.814;2022-09-24T06:38:39;100952.50;;;2.28;100.00
59650;BME280;46162;57.568;25.814;2022-09-24T06:41:08;100951.34;;;2.32;100.00
59650;BME280;46162;57.568;25.814;2022-09-24T06:43:37;100953.06;;;2.33;100.00
59650;BME280;46162;57.568;25.814;2022-09-24T06:46:05;100952.03;;;2.50;100.00
59650;BME280;46162;57.568;25.814;2022-09-24T06:48:35;100953.09;;;2.48;100.00
59650;BME280;46162;57.568;25.814;2022-09-24T06:51:04;100952.69;;;2.54;100.00
59650;BME280;46162;57.568;25.814;2022-09-24T06:53:35;100940.72;;;2.61;100.00
59650;BME280;46162;57.568;25.814;2022-09-24T06:56:04;100952.53;;;2.71;100.00
59650;BME280;46162;57.568;25.814;2022-09-24T06:58:33;100953.22;;;2.75;100.00
59650;BME280;46162;57.568;25.814;2022-09-24T07:01:02;100947.00;;;2.89;100.00
59650;BME280;46162;57.568;25.814;2022-09-24T07:03:33;100950.44;;;2.91;100.00
59650;BME280;46162;57.568;25.814;2022-09-24T07:06:04;100957.50;;;2.92;100.00
59650;BME280;46162;57.568;25.814;2022-09-24T07:08:34;100946.50;;;2.96;100.00
59650;BME280;46162;57.568;25.814;2022-09-24T07:11:03;100953.94;;;3.06;100.00
59650;BME280;46162;57.568;25.814;2022-09-24T07:13:32;100945.16;;;3.18;100.00
59650;BME280;46162;57.568;25.814;2022-09-24T07:16:01;100946.34;;;3.41;100.00
59650;BME280;46162;57.568;25.814;2022-09-24T07:18:30;100951.22;;;3.34;100.00
59650;BME280;46162;57.568;25.814;2022-09-24T07:20:59;100945.78;;;3.36;100.00
59650;BME280;46162;57.568;25.814;2022-09-24T07:23:28;100945.94;;;3.47;100.00
59650;BME280;46162;57.568;25.814;2022-09-24T07:25:58;100944.03;;;3.49;100.00
59650;BME280;46162;57.568;25.814;2022-09-24T07:28:27;100954.97;;;3.59;100.00
59650;BME280;46162;57.568;25.814;2022-09-24T07:30:57;100953.72;;;3.64;100.00
59650;BME280;46162;57.568;25.814;2022-09-24T07:33:26;100953.13;;;3.74;100.00
59650;BME280;46162;57.568;25.814;2022-09-24T07:35:55;100949.41;;;3.89;100.00
59650;BME280;46162;57.568;25.814;2022-09-24T07:38:24;100950.28;;;4.02;100.00
59650;BME280;46162;57.568;25.814;2022-09-24T07:40:57;100947.75;;;4.14;100.00
59650;BME280;46162;57.568;25.814;2022-09-24T07:43:26;100954.09;;;4.25;100.00
59650;BME280;46162;57.568;25.814;2022-09-24T07:45:55;100954.41;;;4.34;100.00
59650;BME280;46162;57.568;25.814;2022-09-24T07:48:24;100956.03;;;4.62;100.00
59650;BME280;46162;57.568;25.814;2022-09-24T07:50:53;100960.84;;;4.57;100.00
59650;BME280;46162;57.568;25.814;2022-09-24T07:53:22;100953.25;;;4.76;100.00
59650;BME280;46162;57.568;25.814;2022-09-24T07:55:50;100958.78;;;4.99;100.00
59650;BME280;46162;57.568;25.814;2022-09-24T07:58:21;100955.13;;;5.12;100.00
59650;BME280;46162;57.568;25.814;2022-09-24T08:00:50;100962.81;;;5.30;100.00
59650;BME280;46162;57.568;25.814;2022-09-24T08:03:19;100953.13;;;5.40;100.00
59650;BME280;46162;57.568;25.814;2022-09-24T08:05:47;100961.75;;;5.56;100.00
59650;BME280;46162;57.568;25.814;2022-09-24T08:08:16;100947.81;;;5.64;100.00
59650;BME280;46162;57.568;25.814;2022-09-24T08:10:46;100951.75;;;5.71;100.00
59650;BME280;46162;57.568;25.814;2022-09-24T08:13:15;100954.78;;;5.78;100.00
59650;BME280;46162;57.568;25.814;2022-09-24T08:15:55;100949.94;;;5.83;100.00
59650;BME280;46162;57.568;25.814;2022-09-24T08:18:26;100951.88;;;5.94;100.00
59650;BME280;46162;57.568;25.814;2022-09-24T08:20:55;100954.81;;;6.02;100.00
59650;BME280;46162;57.568;25.814;2022-09-24T08:23:24;100955.88;;;6.23;100.00
59650;BME280;46162;57.568;25.814;2022-09-24T08:25:53;100953.31;;;6.22;100.00
59650;BME280;46162;57.568;25.814;2022-09-24T08:28:22;100957.38;;;6.39;100.00
59650;BME280;46162;57.568;25.814;2022-09-24T08:30:51;100959.72;;;6.43;100.00
59650;BME280;46162;57.568;25.814;2022-09-24T08:33:21;100954.09;;;6.46;100.00
59650;BME280;46162;57.568;25.814;2022-09-24T08:35:50;100955.22;;;6.55;100.00
59650;BME280;46162;57.568;25.814;2022-09-24T08:38:19;100950.34;;;6.72;100.00
59650;BME280;46162;57.568;25.814;2022-09-24T08:40:53;100954.00;;;6.82;100.00
59650;BME280;46162;57.568;25.814;2022-09-24T08:43:38;100953.66;;;7.09;100.00
59650;BME280;46162;57.568;25.814;2022-09-24T08:46:14;100954.50;;;7.09;100.00
59650;BME280;46162;57.568;25.814;2022-09-24T08:49:04;100956.41;;;7.41;100.00
59650;BME280;46162;57.568;25.814;2022-09-24T08:51:38;100949.56;;;7.48;100.00
59650;BME280;46162;57.568;25.814;2022-09-24T08:54:13;100955.41;;;7.53;100.00
59650;BME280;46162;57.568;25.814;2022-09-24T08:56:44;100955.25;;;7.66;100.00
59650;BME280;46162;57.568;25.814;2022-09-24T08:59:23;100945.81;;;7.83;100.00
59650;BME280;46162;57.568;25.814;2022-09-24T09:02:01;100946.50;;;7.96;100.00
59650;BME280;46162;57.568;25.814;2022-09-24T09:04:52;100935.94;;;8.05;100.00
59650;BME280;46162;57.568;25.814;2022-09-24T09:07:30;100936.88;;;8.15;100.00
59650;BME280;46162;57.568;25.814;2022-09-24T09:10:02;100942.84;;;8.18;100.00
59650;BME280;46162;57.568;25.814;2022-09-24T09:12:34;100934.84;;;8.28;100.00
59650;BME280;46162;57.568;25.814;2022-09-24T09:15:08;100940.81;;;8.32;100.00
59650;BME280;46162;57.568;25.814;2022-09-24T09:17:43;100933.41;;;8.45;100.00
59650;BME280;46162;57.568;25.814;2022-09-24T09:20:18;100931.59;;;8.46;100.00
59650;BME280;46162;57.568;25.814;2022-09-24T09:22:48;100942.94;;;8.49;100.00
59650;BME280;46162;57.568;25.814;2022-09-24T09:25:22;100938.28;;;8.51;100.00
59650;BME280;46162;57.568;25.814;2022-09-24T09:27:59;100939.00;;;8.53;100.00
59650;BME280;46162;57.568;25.814;2022-09-24T09:30:35;100930.53;;;8.58;100.00
59650;BME280;46162;57.568;25.814;2022-09-24T09:33:13;100926.69;;;8.81;100.00
59650;BME280;46162;57.568;25.814;2022-09-24T09:35:50;100927.84;;;8.89;100.00
59650;BME280;46162;57.568;25.814;2022-09-24T09:38:29;100931.28;;;8.91;100.00
59650;BME280;46162;57.568;25.814;2022-09-24T09:41:07;100924.75;;;8.93;100.00
59650;BME280;46162;57.568;25.814;2022-09-24T09:43:39;100928.38;;;9.13;100.00
59650;BME280;46162;57.568;25.814;2022-09-24T09:46:12;100925.31;;;9.28;100.00
59650;BME280;46162;57.568;25.814;2022-09-24T09:48:44;100925.00;;;9.21;100.00
59650;BME280;46162;57.568;25.814;2022-09-24T09:51:18;100926.53;;;9.14;100.00
59650;BME280;46162;57.568;25.814;2022-09-24T09:53:56;100928.78;;;9.09;100.00
59650;BME280;46162;57.568;25.814;2022-09-24T09:56:27;100933.03;;;9.11;100.00
59650;BME280;46162;57.568;25.814;2022-09-24T09:59:02;100923.41;;;9.09;100.00
59650;BME280;46162;57.568;25.814;2022-09-24T10:01:34;100929.91;;;9.06;100.00
59650;BME280;46162;57.568;25.814;2022-09-24T10:04:04;100924.81;;;9.03;100.00
59650;BME280;46162;57.568;25.814;2022-09-24T10:06:35;100914.03;;;9.03;100.00
59650;BME280;46162;57.568;25.814;2022-09-24T10:09:07;100922.69;;;9.07;100.00
59650;BME280;46162;57.568;25.814;2022-09-24T10:11:39;100922.28;;;9.11;100.00
59650;BME280;46162;57.568;25.814;2022-09-24T10:14:10;100915.63;;;9.15;100.00
59650;BME280;46162;57.568;25.814;2022-09-24T10:16:39;100910.09;;;9.17;100.00
59650;BME280;46162;57.568;25.814;2022-09-24T10:19:15;100912.66;;;9.18;100.00
59650;BME280;46162;57.568;25.814;2022-09-24T10:21:46;100910.13;;;9.26;100.00
59650;BME280;46162;57.568;25.814;2022-09-24T10:24:20;100903.75;;;9.28;100.00
59650;BME280;46162;57.568;25.814;2022-09-24T10:26:49;100907.13;;;9.30;100.00
59650;BME280;46162;57.568;25.814;2022-09-24T10:29:21;100902.75;;;9.29;100.00
59650;BME280;46162;57.568;25.814;2022-09-24T10:32:14;100896.69;;;9.46;100.00
59650;BME280;46162;57.568;25.814;2022-09-24T10:34:53;100894.00;;;9.46;100.00
59650;BME280;46162;57.568;25.814;2022-09-24T10:37:25;100888.47;;;9.47;100.00
59650;BME280;46162;57.568;25.814;2022-09-24T10:39:58;100891.44;;;9.54;100.00
59650;BME280;46162;57.568;25.814;2022-09-24T10:42:29;100882.22;;;9.57;100.00
59650;BME280;46162;57.568;25.814;2022-09-24T10:44:59;100884.38;;;9.63;100.00
59650;BME280;46162;57.568;25.814;2022-09-24T10:47:34;100881.53;;;9.64;100.00
59650;BME280;46162;57.568;25.814;2022-09-24T10:50:24;100875.00;;;9.86;100.00
59650;BME280;46162;57.568;25.814;2022-09-24T10:53:00;100880.06;;;10.19;100.00
59650;BME280;46162;57.568;25.814;2022-09-24T10:55:43;100873.97;;;10.36;100.00
59650;BME280;46162;57.568;25.814;2022-09-24T10:58:27;100864.75;;;10.39;100.00
59650;BME280;46162;57.568;25.814;2022-09-24T11:01:07;100874.13;;;10.72;100.00
59650;BME280;46162;57.568;25.814;2022-09-24T11:03:53;100871.56;;;10.70;100.00
59650;BME280;46162;57.568;25.814;2022-09-24T11:06:38;100867.72;;;10.73;100.00
59650;BME280;46162;57.568;25.814;2022-09-24T11:09:20;100870.06;;;10.58;100.00
59650;BME280;46162;57.568;25.814;2022-09-24T11:11:59;100867.56;;;10.37;100.00
59650;BME280;46162;57.568;25.814;2022-09-24T11:14:57;100871.50;;;10.52;100.00
59650;BME280;46162;57.568;25.814;2022-09-24T11:17:46;100867.56;;;10.37;100.00
59650;BME280;46162;57.568;25.814;2022-09-24T11:20:26;100873.84;;;10.28;100.00
59650;BME280;46162;57.568;25.814;2022-09-24T11:23:11;100874.81;;;10.27;100.00
59650;BME280;46162;57.568;25.814;2022-09-24T11:25:51;100867.56;;;10.18;100.00
59650;BME280;46162;57.568;25.814;2022-09-24T11:28:34;100859.63;;;10.16;100.00
59650;BME280;46162;57.568;25.814;2022-09-24T11:31:12;100861.03;;;10.20;100.00
59650;BME280;46162;57.568;25.814;2022-09-24T11:33:57;100868.16;;;10.21;100.00
59650;BME280;46162;57.568;25.814;2022-09-24T11:36:41;100869.56;;;10.25;100.00
59650;BME280;46162;57.568;25.814;2022-09-24T11:39:33;100860.59;;;10.25;100.00
59650;BME280;46162;57.568;25.814;2022-09-24T11:42:19;100867.00;;;10.33;100.00
59650;BME280;46162;57.568;25.814;2022-09-24T11:48:02;100862.91;;;10.20;100.00
59650;BME280;46162;57.568;25.814;2022-09-24T11:50:43;100855.09;;;10.26;100.00
59650;BME280;46162;57.568;25.814;2022-09-24T11:53:20;100853.09;;;10.19;100.00
59650;BME280;46162;57.568;25.814;2022-09-24T11:55:57;100859.06;;;10.12;100.00
59650;BME280;46162;57.568;25.814;2022-09-24T11:58:30;100848.28;;;10.12;100.00
59650;BME280;46162;57.568;25.814;2022-09-24T12:01:03;100847.56;;;10.10;100.00
59650;BME280;46162;57.568;25.814;2022-09-24T12:03:42;100848.56;;;10.09;100.00
59650;BME280;46162;57.568;25.814;2022-09-24T12:06:17;100844.16;;;9.99;100.00
59650;BME280;46162;57.568;25.814;2022-09-24T12:08:50;100844.03;;;10.10;100.00
59650;BME280;46162;57.568;25.814;2022-09-24T12:11:24;100842.28;;;10.28;100.00
59650;BME280;46162;57.568;25.814;2022-09-24T12:14:02;100842.53;;;10.45;100.00
59650;BME280;46162;57.568;25.814;2022-09-24T12:16:36;100845.63;;;10.60;100.00
59650;BME280;46162;57.568;25.814;2022-09-24T12:19:09;100837.13;;;10.54;100.00
59650;BME280;46162;57.568;25.814;2022-09-24T12:21:42;100841.66;;;10.54;100.00
59650;BME280;46162;57.568;25.814;2022-09-24T12:24:18;100843.97;;;10.49;100.00
59650;BME280;46162;57.568;25.814;2022-09-24T12:26:49;100841.41;;;10.47;100.00
59650;BME280;46162;57.568;25.814;2022-09-24T12:29:32;100847.06;;;10.54;100.00
59650;BME280;46162;57.568;25.814;2022-09-24T12:32:23;100841.41;;;10.47;100.00
59650;BME280;46162;57.568;25.814;2022-09-24T12:35:20;100846.38;;;10.42;100.00
59650;BME280;46162;57.568;25.814;2022-09-24T12:37:57;100840.44;;;10.39;100.00
59650;BME280;46162;57.568;25.814;2022-09-24T12:40:41;100841.44;;;10.38;100.00
59650;BME280;46162;57.568;25.814;2022-09-24T12:43:22;100834.88;;;10.40;100.00
59650;BME280;46162;57.568;25.814;2022-09-24T12:45:57;100840.16;;;10.42;100.00
59650;BME280;46162;57.568;25.814;2022-09-24T12:48:30;100834.34;;;10.37;100.00
59650;BME280;46162;57.568;25.814;2022-09-24T12:51:03;100831.91;;;10.33;100.00
59650;BME280;46162;57.568;25.814;2022-09-24T12:53:37;100820.97;;;10.25;100.00
59650;BME280;46162;57.568;25.814;2022-09-24T12:56:08;100820.69;;;10.19;100.00
59650;BME280;46162;57.568;25.814;2022-09-24T12:58:39;100817.34;;;10.07;100.00
59650;BME280;46162;57.568;25.814;2022-09-24T13:01:24;100823.59;;;10.07;100.00
59650;BME280;46162;57.568;25.814;2022-09-24T13:04:25;100827.56;;;10.03;100.00
59650;BME280;46162;57.568;25.814;2022-09-24T13:06:55;100814.81;;;9.96;100.00
59650;BME280;46162;57.568;25.814;2022-09-24T13:09:32;100813.91;;;10.15;100.00
59650;BME280;46162;57.568;25.814;2022-09-24T13:12:04;100814.34;;;10.29;100.00
59650;BME280;46162;57.568;25.814;2022-09-24T13:14:34;100811.78;;;10.28;100.00